createdAt,value
2023-05-05T00:00:00.915Z,94772.00
2023-05-05T00:01:00.947Z,94776.00
2023-05-05T00:02:00.962Z,94770.00
2023-05-05T00:03:01.007Z,94770.00
2023-05-05T00:04:00.986Z,94768.00
2023-05-05T00:05:00.900Z,94766.00
2023-05-05T00:06:00.902Z,94768.00
2023-05-05T00:07:00.887Z,94768.00
2023-05-05T00:08:00.896Z,94768.00
2023-05-05T00:09:00.873Z,94766.00
2023-05-05T00:10:00.868Z,94766.00
2023-05-05T00:11:00.900Z,94766.00
2023-05-05T00:12:00.942Z,94766.00
2023-05-05T00:13:00.983Z,94764.00
2023-05-05T00:14:01.033Z,94766.00
2023-05-05T00:15:01.147Z,94766.00
2023-05-05T00:16:01.196Z,94766.00
2023-05-05T00:17:01.291Z,94766.00
2023-05-05T00:18:01.294Z,94768.00
2023-05-05T00:19:01.321Z,94766.00
2023-05-05T00:20:01.423Z,94768.00
2023-05-05T00:21:02.968Z,94770.00
2023-05-05T00:22:01.534Z,94770.00
2023-05-05T00:23:01.554Z,94768.00
2023-05-05T00:24:01.602Z,94772.00
2023-05-05T00:25:01.651Z,94770.00
2023-05-05T00:26:01.729Z,94770.00
2023-05-05T00:27:01.769Z,94770.00
2023-05-05T00:28:01.859Z,94770.00
2023-05-05T00:29:01.879Z,94768.00
2023-05-05T00:30:01.965Z,94770.00
2023-05-05T00:31:02.251Z,94772.00
2023-05-05T00:32:02.077Z,94772.00
2023-05-05T00:33:02.211Z,94770.00
2023-05-05T00:34:02.213Z,94770.00
2023-05-05T00:35:02.318Z,94772.00
2023-05-05T00:36:02.344Z,94772.00
2023-05-05T00:37:02.405Z,94772.00
2023-05-05T00:38:02.590Z,94774.00
2023-05-05T00:39:02.491Z,94776.00
2023-05-05T00:40:02.566Z,94778.00
2023-05-05T00:41:02.675Z,94778.00
2023-05-05T00:42:02.682Z,94780.00
2023-05-05T00:43:02.881Z,94780.00
2023-05-05T00:44:02.798Z,94780.00
2023-05-05T00:45:02.889Z,94780.00
2023-05-05T00:46:02.984Z,94780.00
2023-05-05T00:47:02.968Z,94780.00
2023-05-05T00:48:03.154Z,94778.00
2023-05-05T00:49:03.219Z,94780.00
2023-05-05T00:50:03.150Z,94776.00
2023-05-05T00:51:03.243Z,94776.00
2023-05-05T00:52:03.403Z,94776.00
2023-05-05T00:53:03.358Z,94774.00
2023-05-05T00:54:03.393Z,94774.00
2023-05-05T00:55:03.465Z,94774.00
2023-05-05T00:56:03.544Z,94772.00
2023-05-05T00:57:03.612Z,94772.00
2023-05-05T00:58:03.709Z,94772.00
2023-05-05T00:59:03.727Z,94768.00
2023-05-05T01:00:03.783Z,94768.00
2023-05-05T01:01:03.853Z,94770.00
2023-05-05T01:02:03.908Z,94770.00
2023-05-05T01:03:04.035Z,94768.00
2023-05-05T01:04:04.084Z,94770.00
2023-05-05T01:05:04.037Z,94770.00
2023-05-05T01:06:04.071Z,94770.00
2023-05-05T01:07:04.133Z,94770.00
2023-05-05T01:08:04.204Z,94770.00
2023-05-05T01:09:04.269Z,94770.00
2023-05-05T01:10:18.186Z,94770.00
2023-05-05T01:11:05.308Z,94768.00
2023-05-05T01:12:04.275Z,94766.00
2023-05-05T01:13:04.338Z,94768.00
2023-05-05T01:14:04.272Z,94770.00
2023-05-05T01:15:04.272Z,94768.00
2023-05-05T01:16:04.293Z,94768.00
2023-05-05T01:17:04.306Z,94768.00
2023-05-05T01:18:04.286Z,94770.00
2023-05-05T01:19:04.341Z,94768.00
2023-05-05T01:20:04.391Z,94770.00
2023-05-05T01:21:06.002Z,94768.00
2023-05-05T01:22:04.463Z,94772.00
2023-05-05T01:23:04.540Z,94774.00
2023-05-05T01:24:04.690Z,94774.00
2023-05-05T01:25:04.661Z,94774.00
2023-05-05T01:26:04.730Z,94774.00
2023-05-05T01:27:04.814Z,94774.00
2023-05-05T01:28:04.830Z,94772.00
2023-05-05T01:29:04.861Z,94772.00
2023-05-05T01:30:04.941Z,94774.00
2023-05-05T01:31:04.976Z,94772.00
2023-05-05T01:32:04.990Z,94776.00
2023-05-05T01:33:05.098Z,94776.00
2023-05-05T01:34:05.123Z,94776.00
2023-05-05T01:35:05.154Z,94774.00
2023-05-05T01:36:05.204Z,94776.00
2023-05-05T01:37:05.269Z,94776.00
2023-05-05T01:38:05.282Z,94776.00
2023-05-05T01:39:05.356Z,94774.00
2023-05-05T01:40:05.584Z,94774.00
2023-05-05T01:41:05.451Z,94772.00
2023-05-05T01:42:05.495Z,94770.00
2023-05-05T01:43:05.522Z,94772.00
2023-05-05T01:44:05.536Z,94774.00
2023-05-05T01:45:05.607Z,94774.00
2023-05-05T01:46:05.687Z,94774.00
2023-05-05T01:47:05.685Z,94774.00
2023-05-05T01:48:05.808Z,94774.00
2023-05-05T01:49:05.766Z,94774.00
2023-05-05T01:50:06.116Z,94772.00
2023-05-05T01:51:05.831Z,94778.00
2023-05-05T01:52:05.810Z,94776.00
2023-05-05T01:53:05.853Z,94778.00
2023-05-05T01:54:05.885Z,94778.00
2023-05-05T01:55:05.890Z,94778.00
2023-05-05T01:56:05.936Z,94778.00
2023-05-05T01:57:05.991Z,94776.00
2023-05-05T01:58:05.977Z,94778.00
2023-05-05T01:59:05.983Z,94778.00
2023-05-05T02:00:06.154Z,94782.00
2023-05-05T02:01:09.044Z,94784.00
2023-05-05T02:02:06.117Z,94784.00
2023-05-05T02:03:06.196Z,94784.00
2023-05-05T02:04:06.077Z,94786.00
2023-05-05T02:05:06.085Z,94788.00
2023-05-05T02:06:06.095Z,94782.00
2023-05-05T02:07:06.095Z,94786.00
2023-05-05T02:08:06.073Z,94786.00
2023-05-05T02:09:06.016Z,94782.00
2023-05-05T02:10:06.345Z,94788.00
2023-05-05T02:11:06.033Z,94788.00
2023-05-05T02:12:06.048Z,94790.00
2023-05-05T02:13:06.089Z,94794.00
2023-05-05T02:14:06.003Z,94790.00
2023-05-05T02:15:06.056Z,94792.00
2023-05-05T02:16:06.192Z,94794.00
2023-05-05T02:17:05.993Z,94790.00
2023-05-05T02:18:06.059Z,94792.00
2023-05-05T02:19:06.007Z,94794.00
2023-05-05T02:20:06.140Z,94796.00
2023-05-05T02:21:05.970Z,94796.00
2023-05-05T02:22:06.141Z,94794.00
2023-05-05T02:23:06.057Z,94799.00
2023-05-05T02:24:05.954Z,94798.00
2023-05-05T02:25:05.957Z,94798.00
2023-05-05T02:26:06.166Z,94798.00
2023-05-05T02:27:05.946Z,94799.00
2023-05-05T02:28:05.925Z,94799.00
2023-05-05T02:29:05.904Z,94801.00
2023-05-05T02:30:06.100Z,94801.00
2023-05-05T02:31:05.946Z,94801.00
2023-05-05T02:32:05.903Z,94803.00
2023-05-05T02:33:05.925Z,94803.00
2023-05-05T02:34:05.879Z,94801.00
2023-05-05T02:35:05.906Z,94801.00
2023-05-05T02:36:06.009Z,94801.00
2023-05-05T02:37:05.857Z,94798.00
2023-05-05T02:38:05.844Z,94798.00
2023-05-05T02:39:05.886Z,94798.00
2023-05-05T02:40:06.087Z,94796.00
2023-05-05T02:41:07.547Z,94799.00
2023-05-05T02:42:05.859Z,94798.00
2023-05-05T02:43:05.861Z,94798.00
2023-05-05T02:44:05.842Z,94798.00
2023-05-05T02:45:05.832Z,94799.00
2023-05-05T02:46:05.826Z,94801.00
2023-05-05T02:47:06.055Z,94803.00
2023-05-05T02:48:05.831Z,94801.00
2023-05-05T02:49:05.784Z,94805.00
2023-05-05T02:50:05.873Z,94803.00
2023-05-05T02:51:05.782Z,94801.00
2023-05-05T02:52:05.748Z,94801.00
2023-05-05T02:53:05.810Z,94801.00
2023-05-05T02:54:05.746Z,94799.00
2023-05-05T02:55:05.728Z,94801.00
2023-05-05T02:56:05.751Z,94798.00
2023-05-05T02:57:05.716Z,94799.00
2023-05-05T02:58:05.719Z,94801.00
2023-05-05T02:59:05.713Z,94801.00
2023-05-05T03:00:06.022Z,94803.00
2023-05-05T03:01:05.679Z,94803.00
2023-05-05T03:02:05.699Z,94798.00
2023-05-05T03:03:05.819Z,94799.00
2023-05-05T03:04:05.677Z,94801.00
2023-05-05T03:05:05.685Z,94799.00
2023-05-05T03:06:05.709Z,94799.00
2023-05-05T03:07:05.680Z,94798.00
2023-05-05T03:08:05.726Z,94798.00
2023-05-05T03:09:05.728Z,94798.00
2023-05-05T03:10:05.939Z,94796.00
2023-05-05T03:11:05.648Z,94796.00
2023-05-05T03:12:05.660Z,94796.00
2023-05-05T03:13:05.649Z,94796.00
2023-05-05T03:14:05.598Z,94799.00
2023-05-05T03:15:05.592Z,94798.00
2023-05-05T03:16:05.626Z,94799.00
2023-05-05T03:17:05.595Z,94799.00
2023-05-05T03:18:05.600Z,94803.00
2023-05-05T03:19:05.611Z,94805.00
2023-05-05T03:20:05.629Z,94803.00
2023-05-05T03:21:05.579Z,94807.00
2023-05-05T03:22:05.574Z,94811.00
2023-05-05T03:23:05.567Z,94809.00
2023-05-05T03:24:05.548Z,94809.00
2023-05-05T03:25:05.531Z,94805.00
2023-05-05T03:26:05.526Z,94807.00
2023-05-05T03:27:05.533Z,94807.00
2023-05-05T03:28:05.508Z,94807.00
2023-05-05T03:29:05.517Z,94803.00
2023-05-05T03:30:05.644Z,94805.00
2023-05-05T03:31:05.529Z,94807.00
2023-05-05T03:32:05.588Z,94803.00
2023-05-05T03:33:05.541Z,94807.00
2023-05-05T03:34:05.503Z,94807.00
2023-05-05T03:35:05.494Z,94807.00
2023-05-05T03:36:05.478Z,94807.00
2023-05-05T03:37:05.459Z,94807.00
2023-05-05T03:38:05.478Z,94807.00
2023-05-05T03:39:05.467Z,94805.00
2023-05-05T03:40:05.568Z,94807.00
2023-05-05T03:41:05.473Z,94807.00
2023-05-05T03:42:05.456Z,94805.00
2023-05-05T03:43:05.446Z,94809.00
2023-05-05T03:44:05.454Z,94809.00
2023-05-05T03:45:05.453Z,94809.00
2023-05-05T03:46:05.440Z,94809.00
2023-05-05T03:47:05.415Z,94809.00
2023-05-05T03:48:05.474Z,94809.00
2023-05-05T03:49:05.438Z,94807.00
2023-05-05T03:50:05.580Z,94811.00
2023-05-05T03:51:05.428Z,94811.00
2023-05-05T03:52:05.423Z,94813.00
2023-05-05T03:53:05.424Z,94813.00
2023-05-05T03:54:05.434Z,94813.00
2023-05-05T03:55:05.417Z,94811.00
2023-05-05T03:56:05.427Z,94811.00
2023-05-05T03:57:05.440Z,94807.00
2023-05-05T03:58:05.641Z,94807.00
2023-05-05T03:59:05.520Z,94807.00
2023-05-05T04:00:06.547Z,94805.00
2023-05-05T04:01:05.478Z,94803.00
2023-05-05T04:02:05.466Z,94803.00
2023-05-05T04:03:05.706Z,94801.00
2023-05-05T04:04:05.476Z,94799.00
2023-05-05T04:05:05.405Z,94798.00
2023-05-05T04:06:05.390Z,94798.00
2023-05-05T04:07:05.417Z,94799.00
2023-05-05T04:08:05.415Z,94801.00
2023-05-05T04:09:05.433Z,94803.00
2023-05-05T04:10:05.524Z,94801.00
2023-05-05T04:11:05.415Z,94801.00
2023-05-05T04:12:05.420Z,94799.00
2023-05-05T04:13:05.472Z,94801.00
2023-05-05T04:14:05.480Z,94801.00
2023-05-05T04:15:05.394Z,94799.00
2023-05-05T04:16:05.408Z,94801.00
2023-05-05T04:17:05.429Z,94803.00
2023-05-05T04:18:05.475Z,94803.00
2023-05-05T04:19:05.431Z,94803.00
2023-05-05T04:20:05.541Z,94801.00
2023-05-05T04:21:05.457Z,94801.00
2023-05-05T04:22:05.458Z,94803.00
2023-05-05T04:23:05.769Z,94803.00
2023-05-05T04:24:05.439Z,94807.00
2023-05-05T04:25:05.432Z,94807.00
2023-05-05T04:26:05.451Z,94805.00
2023-05-05T04:27:05.440Z,94807.00
2023-05-05T04:28:05.440Z,94807.00
2023-05-05T04:29:05.451Z,94807.00
2023-05-05T04:30:05.565Z,94811.00
2023-05-05T04:31:05.475Z,94809.00
2023-05-05T04:32:05.475Z,94805.00
2023-05-05T04:33:05.534Z,94813.00
2023-05-05T04:34:05.447Z,94807.00
2023-05-05T04:35:05.456Z,94809.00
2023-05-05T04:36:05.455Z,94809.00
2023-05-05T04:37:05.432Z,94807.00
2023-05-05T04:38:05.489Z,94807.00
2023-05-05T04:39:05.497Z,94807.00
2023-05-05T04:40:05.520Z,94809.00
2023-05-05T04:41:05.601Z,94807.00
2023-05-05T04:42:05.452Z,94809.00
2023-05-05T04:43:05.453Z,94811.00
2023-05-05T04:44:05.435Z,94813.00
2023-05-05T04:45:05.486Z,94811.00
2023-05-05T04:46:05.526Z,94815.00
2023-05-05T04:47:05.441Z,94815.00
2023-05-05T04:48:05.490Z,94813.00
2023-05-05T04:49:05.442Z,94813.00
2023-05-05T04:50:05.458Z,94815.00
2023-05-05T04:51:05.415Z,94813.00
2023-05-05T04:52:05.456Z,94817.00
2023-05-05T04:53:05.413Z,94819.00
2023-05-05T04:54:05.410Z,94819.00
2023-05-05T04:55:05.574Z,94817.00
2023-05-05T04:56:05.433Z,94815.00
2023-05-05T04:57:05.420Z,94817.00
2023-05-05T04:58:05.478Z,94821.00
2023-05-05T04:59:05.394Z,94823.00
2023-05-05T05:00:05.616Z,94823.00
2023-05-05T05:01:05.432Z,94827.00
2023-05-05T05:02:05.467Z,94831.00
2023-05-05T05:03:05.475Z,94827.00
2023-05-05T05:04:05.433Z,94827.00
2023-05-05T05:05:05.413Z,94827.00
2023-05-05T05:06:05.428Z,94829.00
2023-05-05T05:07:05.408Z,94829.00
2023-05-05T05:08:05.447Z,94823.00
2023-05-05T05:09:05.409Z,94823.00
2023-05-05T05:10:05.591Z,94823.00
2023-05-05T05:11:05.417Z,94825.00
2023-05-05T05:12:05.401Z,94833.00
2023-05-05T05:13:05.457Z,94829.00
2023-05-05T05:14:05.449Z,94829.00
2023-05-05T05:15:05.511Z,94833.00
2023-05-05T05:16:05.417Z,94831.00
2023-05-05T05:17:05.369Z,94835.00
2023-05-05T05:18:05.429Z,94835.00
2023-05-05T05:19:05.388Z,94837.00
2023-05-05T05:20:05.426Z,94833.00
2023-05-05T05:21:05.495Z,94839.00
2023-05-05T05:22:05.439Z,94835.00
2023-05-05T05:23:05.425Z,94835.00
2023-05-05T05:24:05.449Z,94841.00
2023-05-05T05:25:05.425Z,94841.00
2023-05-05T05:26:05.651Z,94841.00
2023-05-05T05:27:08.519Z,94841.00
2023-05-05T05:28:09.466Z,94839.00
2023-05-05T05:29:06.454Z,94839.00
2023-05-05T05:30:05.482Z,94839.00
2023-05-05T05:31:05.604Z,94835.00
2023-05-05T05:32:05.410Z,94839.00
2023-05-05T05:33:05.463Z,94843.00
2023-05-05T05:34:05.641Z,94841.00
2023-05-05T05:35:05.403Z,94839.00
2023-05-05T05:36:07.290Z,94839.00
2023-05-05T05:37:05.489Z,94835.00
2023-05-05T05:38:06.404Z,94835.00
2023-05-05T05:39:05.373Z,94835.00
2023-05-05T05:40:05.527Z,94833.00
2023-05-05T05:41:05.371Z,94835.00
2023-05-05T05:42:05.460Z,94835.00
2023-05-05T05:43:05.366Z,94835.00
2023-05-05T05:44:05.720Z,94837.00
2023-05-05T05:45:05.341Z,94831.00
2023-05-05T05:46:06.946Z,94835.00
2023-05-05T05:47:05.300Z,94837.00
2023-05-05T05:48:06.174Z,94837.00
2023-05-05T05:49:05.356Z,94837.00
2023-05-05T05:50:05.405Z,94835.00
2023-05-05T05:51:05.296Z,94835.00
2023-05-05T05:52:05.300Z,94837.00
2023-05-05T05:53:05.262Z,94839.00
2023-05-05T05:54:05.295Z,94837.00
2023-05-05T05:55:05.249Z,94835.00
2023-05-05T05:56:05.582Z,94837.00
2023-05-05T05:57:05.219Z,94841.00
2023-05-05T05:58:05.386Z,94837.00
2023-05-05T05:59:06.279Z,94839.00
2023-05-05T06:00:05.296Z,94843.00
2023-05-05T06:01:05.223Z,94841.00
2023-05-05T06:02:05.252Z,94841.00
2023-05-05T06:03:05.375Z,94839.00
2023-05-05T06:04:05.647Z,94839.00
2023-05-05T06:05:05.207Z,94843.00
2023-05-05T06:06:05.193Z,94843.00
2023-05-05T06:07:05.153Z,94839.00
2023-05-05T06:08:05.190Z,94841.00
2023-05-05T06:09:05.166Z,94839.00
2023-05-05T06:10:22.873Z,94839.00
2023-05-05T06:11:06.168Z,94841.00
2023-05-05T06:12:05.152Z,94839.00
2023-05-05T06:13:05.328Z,94837.00
2023-05-05T06:14:05.127Z,94837.00
2023-05-05T06:15:05.119Z,94837.00
2023-05-05T06:16:05.261Z,94835.00
2023-05-05T06:17:05.136Z,94837.00
2023-05-05T06:18:05.093Z,94835.00
2023-05-05T06:19:05.160Z,94835.00
2023-05-05T06:20:05.451Z,94835.00
2023-05-05T06:21:05.098Z,94839.00
2023-05-05T06:22:05.159Z,94833.00
2023-05-05T06:23:05.211Z,94831.00
2023-05-05T06:24:05.282Z,94833.00
2023-05-05T06:25:05.286Z,94831.00
2023-05-05T06:26:05.408Z,94831.00
2023-05-05T06:27:05.458Z,94827.00
2023-05-05T06:28:05.460Z,94827.00
2023-05-05T06:29:05.477Z,94829.00
2023-05-05T06:30:05.639Z,94827.00
2023-05-05T06:31:05.585Z,94825.00
2023-05-05T06:32:05.608Z,94825.00
2023-05-05T06:33:05.726Z,94823.00
2023-05-05T06:34:06.120Z,94823.00
2023-05-05T06:35:05.800Z,94821.00
2023-05-05T06:36:05.785Z,94825.00
2023-05-05T06:37:08.077Z,94821.00
2023-05-05T06:38:05.714Z,94825.00
2023-05-05T06:39:05.708Z,94823.00
2023-05-05T06:40:05.858Z,94823.00
2023-05-05T06:41:05.774Z,94821.00
2023-05-05T06:42:05.791Z,94821.00
2023-05-05T06:43:05.902Z,94823.00
2023-05-05T06:44:06.150Z,94821.00
2023-05-05T06:45:05.951Z,94821.00
2023-05-05T06:46:05.900Z,94821.00
2023-05-05T06:47:06.204Z,94817.00
2023-05-05T06:48:06.026Z,94813.00
2023-05-05T06:49:06.008Z,94811.00
2023-05-05T06:50:06.192Z,94807.00
2023-05-05T06:51:06.080Z,94811.00
2023-05-05T06:52:06.119Z,94809.00
2023-05-05T06:53:06.197Z,94811.00
2023-05-05T06:54:06.664Z,94809.00
2023-05-05T06:55:06.216Z,94809.00
2023-05-05T06:56:07.232Z,94807.00
2023-05-05T06:57:06.274Z,94805.00
2023-05-05T06:58:06.298Z,94807.00
2023-05-05T06:59:06.304Z,94805.00
2023-05-05T07:00:07.567Z,94805.00
2023-05-05T07:01:07.222Z,94805.00
2023-05-05T07:02:06.323Z,94801.00
2023-05-05T07:03:06.392Z,94801.00
2023-05-05T07:04:06.429Z,94801.00
2023-05-05T07:05:07.152Z,94799.00
2023-05-05T07:06:06.442Z,94801.00
2023-05-05T07:07:06.431Z,94803.00
2023-05-05T07:08:06.444Z,94801.00
2023-05-05T07:09:06.749Z,94801.00
2023-05-05T07:10:06.755Z,94799.00
2023-05-05T07:11:06.491Z,94799.00
2023-05-05T07:12:06.674Z,94798.00
2023-05-05T07:13:06.533Z,94799.00
2023-05-05T07:14:06.677Z,94799.00
2023-05-05T07:15:19.085Z,94799.00
2023-05-05T07:16:07.564Z,94798.00
2023-05-05T07:17:06.572Z,94798.00
2023-05-05T07:18:06.655Z,94794.00
2023-05-05T07:19:06.542Z,94794.00
2023-05-05T07:20:06.705Z,94790.00
2023-05-05T07:21:06.524Z,94790.00
2023-05-05T07:22:06.554Z,94788.00
2023-05-05T07:23:06.496Z,94788.00
2023-05-05T07:24:06.639Z,94788.00
2023-05-05T07:25:06.539Z,94784.00
2023-05-05T07:26:06.497Z,94786.00
2023-05-05T07:27:06.470Z,94782.00
2023-05-05T07:28:06.473Z,94782.00
2023-05-05T07:29:07.193Z,94782.00
2023-05-05T07:30:10.915Z,94778.00
2023-05-05T07:31:07.637Z,94782.00
2023-05-05T07:32:06.669Z,94780.00
2023-05-05T07:33:06.824Z,94780.00
2023-05-05T07:34:06.648Z,94778.00
2023-05-05T07:35:06.699Z,94778.00
2023-05-05T07:36:06.667Z,94778.00
2023-05-05T07:37:07.198Z,94774.00
2023-05-05T07:38:07.695Z,94776.00
2023-05-05T07:39:06.706Z,94776.00
2023-05-05T07:40:06.929Z,94776.00
2023-05-05T07:41:06.758Z,94768.00
2023-05-05T07:42:06.711Z,94766.00
2023-05-05T07:43:06.703Z,94764.00
2023-05-05T07:44:06.714Z,94764.00
2023-05-05T07:45:06.790Z,94768.00
2023-05-05T07:46:06.744Z,94764.00
2023-05-05T07:47:06.733Z,94764.00
2023-05-05T07:48:06.821Z,94766.00
2023-05-05T07:49:07.190Z,94760.00
2023-05-05T07:50:07.137Z,94756.00
2023-05-05T07:51:06.717Z,94754.00
2023-05-05T07:52:06.722Z,94752.00
2023-05-05T07:53:14.242Z,94754.00
2023-05-05T07:54:08.151Z,94752.00
2023-05-05T07:55:06.784Z,94749.00
2023-05-05T07:56:06.714Z,94751.00
2023-05-05T07:57:06.891Z,94752.00
2023-05-05T07:58:07.741Z,94747.00
2023-05-05T07:59:07.135Z,94747.00
2023-05-05T08:00:07.003Z,94747.00
2023-05-05T08:01:06.706Z,94745.00
2023-05-05T08:02:07.220Z,94747.00
2023-05-05T08:03:10.636Z,94747.00
2023-05-05T08:04:06.988Z,94743.00
2023-05-05T08:05:07.054Z,94745.00
2023-05-05T08:06:06.685Z,94745.00
2023-05-05T08:07:06.724Z,94745.00
2023-05-05T08:08:08.250Z,94745.00
2023-05-05T08:09:06.654Z,94745.00
2023-05-05T08:10:06.631Z,94741.00
2023-05-05T08:11:06.915Z,94739.00
2023-05-05T08:12:06.641Z,94737.00
2023-05-05T08:13:06.693Z,94737.00
2023-05-05T08:14:06.613Z,94737.00
2023-05-05T08:15:06.976Z,94737.00
2023-05-05T08:16:06.611Z,94735.00
2023-05-05T08:17:06.561Z,94733.00
2023-05-05T08:18:06.671Z,94731.00
2023-05-05T08:19:14.825Z,94731.00
2023-05-05T08:20:07.574Z,94729.00
2023-05-05T08:21:06.591Z,94723.00
2023-05-05T08:22:06.588Z,94723.00
2023-05-05T08:23:07.811Z,94719.00
2023-05-05T08:24:06.727Z,94719.00
2023-05-05T08:25:07.797Z,94715.00
2023-05-05T08:26:06.529Z,94717.00
2023-05-05T08:27:19.692Z,94713.00
2023-05-05T08:28:06.681Z,94715.00
2023-05-05T08:29:06.549Z,94713.00
2023-05-05T08:30:06.501Z,94709.00
2023-05-05T08:31:06.600Z,94709.00
2023-05-05T08:32:06.486Z,94707.00
2023-05-05T08:33:06.600Z,94705.00
2023-05-05T08:34:06.480Z,94705.00
2023-05-05T08:35:06.681Z,94704.00
2023-05-05T08:36:06.559Z,94702.00
2023-05-05T08:37:06.596Z,94700.00
2023-05-05T08:38:07.474Z,94704.00
2023-05-05T08:39:06.470Z,94700.00
2023-05-05T08:40:06.457Z,94698.00
2023-05-05T08:41:06.531Z,94698.00
2023-05-05T08:42:06.415Z,94696.00
2023-05-05T08:43:06.412Z,94696.00
2023-05-05T08:44:06.369Z,94694.00
2023-05-05T08:45:07.392Z,94692.00
2023-05-05T08:46:06.409Z,94690.00
2023-05-05T08:47:06.961Z,94692.00
2023-05-05T08:48:06.879Z,94690.00
2023-05-05T08:49:06.359Z,94688.00
2023-05-05T08:50:06.371Z,94684.00
2023-05-05T08:51:06.359Z,94688.00
2023-05-05T08:52:07.411Z,94684.00
2023-05-05T08:53:06.549Z,94682.00
2023-05-05T08:54:06.702Z,94678.00
2023-05-05T08:55:06.773Z,94680.00
2023-05-05T08:56:06.927Z,94682.00
2023-05-05T08:57:06.773Z,94680.00
2023-05-05T08:58:06.796Z,94680.00
2023-05-05T08:59:06.831Z,94678.00
2023-05-05T09:00:06.827Z,94676.00
2023-05-05T09:01:07.015Z,94678.00
2023-05-05T09:02:06.968Z,94678.00
2023-05-05T09:03:07.324Z,94676.00
2023-05-05T09:04:07.128Z,94676.00
2023-05-05T09:05:07.572Z,94674.00
2023-05-05T09:06:07.176Z,94674.00
2023-05-05T09:07:07.305Z,94674.00
2023-05-05T09:08:07.288Z,94670.00
2023-05-05T09:09:08.063Z,94666.00
2023-05-05T09:10:07.443Z,94666.00
2023-05-05T09:11:07.537Z,94664.00
2023-05-05T09:12:07.739Z,94662.00
2023-05-05T09:13:07.839Z,94660.00
2023-05-05T09:14:07.671Z,94656.00
2023-05-05T09:15:08.029Z,94656.00
2023-05-05T09:16:07.792Z,94656.00
2023-05-05T09:17:07.985Z,94654.00
2023-05-05T09:18:07.972Z,94652.00
2023-05-05T09:19:08.024Z,94652.00
2023-05-05T09:20:09.132Z,94652.00
2023-05-05T09:21:08.093Z,94649.00
2023-05-05T09:22:08.127Z,94650.00
2023-05-05T09:23:08.208Z,94649.00
2023-05-05T09:24:09.131Z,94649.00
2023-05-05T09:25:08.363Z,94645.00
2023-05-05T09:26:08.145Z,94645.00
2023-05-05T09:27:08.151Z,94645.00
2023-05-05T09:28:08.317Z,94643.00
2023-05-05T09:29:09.277Z,94643.00
2023-05-05T09:30:09.153Z,94641.00
2023-05-05T09:31:08.208Z,94641.00
2023-05-05T09:32:08.186Z,94641.00
2023-05-05T09:33:08.776Z,94635.00
2023-05-05T09:34:08.274Z,94635.00
2023-05-05T09:35:08.504Z,94625.00
2023-05-05T09:36:08.428Z,94625.00
2023-05-05T09:37:08.517Z,94621.00
2023-05-05T09:38:08.753Z,94619.00
2023-05-05T09:39:08.616Z,94621.00
2023-05-05T09:40:08.679Z,94617.00
2023-05-05T09:41:08.916Z,94613.00
2023-05-05T09:42:08.809Z,94609.00
2023-05-05T09:43:09.042Z,94605.00
2023-05-05T09:44:08.923Z,94607.00
2023-05-05T09:45:09.141Z,94605.00
2023-05-05T09:46:09.083Z,94604.00
2023-05-05T09:47:21.991Z,94607.00
2023-05-05T09:48:10.086Z,94604.00
2023-05-05T09:49:09.094Z,94602.00
2023-05-05T09:50:09.278Z,94600.00
2023-05-05T09:51:09.046Z,94600.00
2023-05-05T09:52:09.023Z,94598.00
2023-05-05T09:53:09.034Z,94596.00
2023-05-05T09:54:09.080Z,94592.00
2023-05-05T09:55:09.013Z,94594.00
2023-05-05T09:56:09.078Z,94592.00
2023-05-05T09:57:09.113Z,94592.00
2023-05-05T09:58:09.289Z,94588.00
2023-05-05T09:59:09.259Z,94588.00
2023-05-05T10:00:09.449Z,94588.00
2023-05-05T10:01:09.370Z,94590.00
2023-05-05T10:02:09.486Z,94590.00
2023-05-05T10:03:09.577Z,94588.00
2023-05-05T10:04:09.547Z,94586.00
2023-05-05T10:05:09.811Z,94586.00
2023-05-05T10:06:09.640Z,94584.00
2023-05-05T10:07:09.699Z,94580.00
2023-05-05T10:08:09.724Z,94582.00
2023-05-05T10:09:09.786Z,94582.00
2023-05-05T10:10:10.209Z,94580.00
2023-05-05T10:11:09.922Z,94580.00
2023-05-05T10:12:09.965Z,94580.00
2023-05-05T10:13:10.058Z,94578.00
2023-05-05T10:14:10.117Z,94574.00
2023-05-05T10:15:10.177Z,94574.00
2023-05-05T10:16:10.254Z,94572.00
2023-05-05T10:17:10.285Z,94572.00
2023-05-05T10:18:10.435Z,94570.00
2023-05-05T10:19:10.411Z,94574.00
2023-05-05T10:20:10.825Z,94568.00
2023-05-05T10:21:10.688Z,94566.00
2023-05-05T10:22:10.576Z,94568.00
2023-05-05T10:23:10.620Z,94568.00
2023-05-05T10:24:10.660Z,94568.00
2023-05-05T10:25:11.488Z,94568.00
2023-05-05T10:26:10.827Z,94568.00
2023-05-05T10:27:12.146Z,94562.00
2023-05-05T10:28:11.328Z,94562.00
2023-05-05T10:29:16.806Z,94562.00
2023-05-05T10:30:12.455Z,94557.00
2023-05-05T10:31:24.205Z,94555.00
2023-05-05T10:32:30.211Z,94555.00
2023-05-05T10:33:30.287Z,94553.00
2023-05-05T10:34:12.261Z,94549.00
2023-05-05T10:35:12.702Z,94551.00
2023-05-05T10:36:13.636Z,94549.00
2023-05-05T10:37:10.993Z,94547.00
2023-05-05T10:38:13.911Z,94543.00
2023-05-05T10:39:11.937Z,94539.00
2023-05-05T10:40:11.093Z,94535.00
2023-05-05T10:41:11.749Z,94533.00
2023-05-05T10:42:11.292Z,94531.00
2023-05-05T10:43:11.210Z,94529.00
2023-05-05T10:44:11.032Z,94529.00
2023-05-05T10:45:12.161Z,94527.00
2023-05-05T10:46:11.564Z,94527.00
2023-05-05T10:47:11.224Z,94523.00
2023-05-05T10:48:11.050Z,94523.00
2023-05-05T10:49:12.933Z,94521.00
2023-05-05T10:50:11.215Z,94521.00
2023-05-05T10:51:11.136Z,94519.00
2023-05-05T10:52:11.677Z,94515.00
2023-05-05T10:53:14.799Z,94513.00
2023-05-05T10:54:11.639Z,94513.00
2023-05-05T10:55:11.347Z,94513.00
2023-05-05T10:56:11.648Z,94507.00
2023-05-05T10:57:11.757Z,94504.00
2023-05-05T10:58:11.253Z,94504.00
2023-05-05T10:59:11.482Z,94504.00
2023-05-05T11:01:30.509Z,94498.00
2023-05-05T11:02:30.286Z,94498.00
2023-05-05T11:03:30.365Z,94494.00
2023-05-05T11:04:30.141Z,94494.00
2023-05-05T11:05:30.801Z,94494.00
2023-05-05T11:06:30.106Z,94486.00
2023-05-05T11:07:30.258Z,94486.00
2023-05-05T11:08:31.494Z,94484.00
2023-05-05T11:09:30.408Z,94484.00
2023-05-05T11:10:31.036Z,94484.00
2023-05-05T11:11:30.537Z,94480.00
2023-05-05T11:12:30.500Z,94480.00
2023-05-05T11:13:30.443Z,94476.00
2023-05-05T11:14:31.066Z,94474.00
2023-05-05T11:15:30.858Z,94468.00
2023-05-05T11:16:30.698Z,94468.00
2023-05-05T11:17:30.904Z,94470.00
2023-05-05T11:18:30.745Z,94466.00
2023-05-05T11:19:30.855Z,94458.00
2023-05-05T11:20:31.863Z,94455.00
2023-05-05T11:21:30.899Z,94455.00
2023-05-05T11:22:30.973Z,94453.00
2023-05-05T11:23:31.204Z,94451.00
2023-05-05T11:24:31.083Z,94453.00
2023-05-05T11:25:31.215Z,94447.00
2023-05-05T11:26:31.891Z,94449.00
2023-05-05T11:27:31.266Z,94445.00
2023-05-05T11:28:32.367Z,94445.00
2023-05-05T11:29:31.514Z,94449.00
2023-05-05T11:30:31.452Z,94445.00
2023-05-05T11:31:31.624Z,94439.00
2023-05-05T11:32:31.617Z,94439.00
2023-05-05T11:33:31.744Z,94437.00
2023-05-05T11:34:31.677Z,94435.00
2023-05-05T11:35:31.767Z,94433.00
2023-05-05T11:36:31.814Z,94431.00
2023-05-05T11:37:31.865Z,94431.00
2023-05-05T11:38:31.897Z,94427.00
2023-05-05T11:39:31.902Z,94423.00
2023-05-05T11:40:31.910Z,94423.00
2023-05-05T11:41:31.936Z,94421.00
2023-05-05T11:42:32.085Z,94425.00
2023-05-05T11:43:31.977Z,94423.00
2023-05-05T11:44:32.004Z,94421.00
2023-05-05T11:45:32.030Z,94419.00